createdAt,value
2022-12-28T00:01:10.147Z,101290.31
2022-12-28T00:03:42.388Z,101287.66
2022-12-28T00:06:12.468Z,101287.53
2022-12-28T00:08:42.507Z,101274.88
2022-12-28T00:11:27.485Z,101269.78
2022-12-28T00:14:01.290Z,101273.53
2022-12-28T00:16:32.625Z,101265.66
2022-12-28T00:19:06.852Z,101262.41
2022-12-28T00:21:37.176Z,101257.28
2022-12-28T00:24:07.900Z,101251.31
2022-12-28T00:26:38.283Z,101251.53
2022-12-28T00:29:07.872Z,101248.63
2022-12-28T00:31:37.434Z,101239.78
2022-12-28T00:34:09.581Z,101245.22
2022-12-28T00:37:08.924Z,101230.63
2022-12-28T00:39:28.564Z,101231.09
2022-12-28T00:41:58.050Z,101235.66
2022-12-28T00:44:27.602Z,101221.06
2022-12-28T00:46:57.098Z,101226.31
2022-12-28T00:49:29.164Z,101217.75
2022-12-28T00:51:58.675Z,101214.66
2022-12-28T00:54:29.187Z,101227.97
2022-12-28T00:56:58.651Z,101220.53
2022-12-28T00:59:29.219Z,101217.75
2022-12-28T01:01:58.878Z,101213.66
2022-12-28T01:04:30.960Z,101208.41
2022-12-28T01:07:00.492Z,101201.88
2022-12-28T01:09:30.148Z,101206.00
2022-12-28T01:11:59.594Z,101201.66
2022-12-28T01:14:30.035Z,101194.22
2022-12-28T01:16:59.577Z,101189.53
2022-12-28T01:19:31.804Z,101188.88
2022-12-28T01:22:01.361Z,101177.22
2022-12-28T01:24:30.807Z,101166.22
2022-12-28T01:27:00.353Z,101167.13
2022-12-28T01:29:29.870Z,101172.00
2022-12-28T01:31:59.348Z,101161.00
2022-12-28T01:34:31.554Z,101158.91
2022-12-28T01:37:01.038Z,101162.78
2022-12-28T01:39:30.561Z,101151.22
2022-12-28T01:42:00.069Z,101149.00
2022-12-28T01:44:45.335Z,101149.00
2022-12-28T01:47:17.713Z,101148.03
2022-12-28T01:50:02.938Z,101139.34
2022-12-28T01:52:36.443Z,101139.56
2022-12-28T01:55:09.221Z,101135.00
2022-12-28T01:57:43.358Z,101132.44
2022-12-28T02:00:16.122Z,101138.59
2022-12-28T02:02:50.203Z,101142.91
2022-12-28T02:05:23.405Z,101150.25
2022-12-28T02:07:56.799Z,101145.78
2022-12-28T02:10:42.996Z,101142.00
2022-12-28T02:13:18.232Z,101137.75
2022-12-28T02:15:48.543Z,101135.88
2022-12-28T02:18:18.918Z,101138.00
2022-12-28T02:21:15.760Z,101120.88
2022-12-28T02:24:04.572Z,101131.53
2022-12-28T02:26:51.195Z,101121.75
2022-12-28T02:29:33.836Z,101096.44
2022-12-28T02:32:09.406Z,101088.72
2022-12-28T02:34:43.587Z,101074.84
2022-12-28T02:37:16.129Z,101065.09
2022-12-28T02:39:47.857Z,101055.66
2022-12-28T02:42:18.761Z,101043.66
2022-12-28T02:45:03.431Z,101020.94
2022-12-28T02:47:45.280Z,101030.44
2022-12-28T02:50:17.283Z,101021.25
2022-12-28T02:53:27.946Z,101001.16
2022-12-28T02:56:07.232Z,100998.25
2022-12-28T02:59:12.818Z,100990.50
2022-12-28T03:02:03.507Z,100987.50
2022-12-28T03:04:40.274Z,100973.63
2022-12-28T03:07:25.807Z,100957.28
2022-12-28T03:09:58.994Z,100938.78
2022-12-28T03:12:31.219Z,100928.78
2022-12-28T03:15:05.868Z,100932.78
2022-12-28T03:17:51.480Z,100902.41
2022-12-28T03:20:38.260Z,100913.28
2022-12-28T03:23:21.300Z,100897.06
2022-12-28T03:26:03.918Z,100889.22
2022-12-28T03:28:47.339Z,100865.03
2022-12-28T03:31:19.810Z,100853.84
2022-12-28T03:33:53.204Z,100840.97
2022-12-28T03:36:26.118Z,100816.78
2022-12-28T03:39:01.789Z,100809.81
2022-12-28T03:41:35.671Z,100805.59
2022-12-28T03:44:08.103Z,100782.44
2022-12-28T03:46:42.441Z,100783.44
2022-12-28T03:49:14.937Z,100765.06
2022-12-28T03:51:44.782Z,100755.84
2022-12-28T03:54:17.115Z,100741.97
2022-12-28T03:56:49.041Z,100733.09
2022-12-28T03:59:18.880Z,100708.69
2022-12-28T04:01:48.393Z,100703.50
2022-12-28T04:04:20.491Z,100694.97
2022-12-28T04:06:50.091Z,100674.25
2022-12-28T04:09:19.544Z,100670.72
2022-12-28T04:11:49.285Z,100655.41
2022-12-28T04:14:18.699Z,100629.47
2022-12-28T04:16:48.106Z,100629.66
2022-12-28T04:19:20.148Z,100617.50
2022-12-28T04:21:49.524Z,100614.03
2022-12-28T04:24:19.237Z,100604.63
2022-12-28T04:26:48.612Z,100589.13
2022-12-28T04:29:18.048Z,100579.81
2022-12-28T04:31:47.529Z,100568.50
2022-12-28T04:34:22.298Z,100554.00
2022-12-28T04:36:51.656Z,100539.56
2022-12-28T04:39:21.064Z,100531.91
2022-12-28T04:41:50.546Z,100519.69
2022-12-28T04:44:19.969Z,100524.59
2022-12-28T04:46:49.476Z,100526.81
2022-12-28T04:49:19.003Z,100512.84
2022-12-28T04:51:50.967Z,100488.25
2022-12-28T04:54:20.486Z,100476.47
2022-12-28T04:56:49.889Z,100491.34
2022-12-28T04:59:19.355Z,100498.69
2022-12-28T05:01:49.188Z,100476.06
2022-12-28T05:04:18.681Z,100459.88
2022-12-28T05:06:48.278Z,100480.47
2022-12-28T05:09:20.341Z,100470.44
2022-12-28T05:11:49.757Z,100460.13
2022-12-28T05:14:19.304Z,100453.38
2022-12-28T05:16:48.696Z,100446.28
2022-12-28T05:19:18.165Z,100438.66
2022-12-28T05:21:47.663Z,100437.09
2022-12-28T05:24:20.493Z,100419.81
2022-12-28T05:26:49.889Z,100424.44
2022-12-28T05:29:19.294Z,100423.16
2022-12-28T05:31:48.798Z,100402.78
2022-12-28T05:34:18.242Z,100387.66
2022-12-28T05:36:47.645Z,100392.97
2022-12-28T05:39:17.101Z,100408.16
2022-12-28T05:41:49.159Z,100395.66
2022-12-28T05:44:18.559Z,100408.28
2022-12-28T05:46:48.037Z,100415.81
2022-12-28T05:49:17.433Z,100398.28
2022-12-28T05:51:46.865Z,100403.38
2022-12-28T05:54:16.262Z,100400.13
2022-12-28T05:56:45.639Z,100392.59
2022-12-28T05:59:17.642Z,100379.06
2022-12-28T06:01:47.769Z,100356.75
2022-12-28T06:04:19.436Z,100359.06
2022-12-28T06:06:50.077Z,100348.31
2022-12-28T06:09:19.513Z,100351.44
2022-12-28T06:11:48.998Z,100350.97
2022-12-28T06:14:21.021Z,100335.56
2022-12-28T06:16:51.614Z,100339.19
2022-12-28T06:19:21.085Z,100342.63
2022-12-28T06:21:50.487Z,100343.59
2022-12-28T06:24:19.875Z,100341.06
2022-12-28T06:26:51.193Z,100348.03
2022-12-28T06:29:24.206Z,100340.84
2022-12-28T06:31:54.845Z,100350.19
2022-12-28T06:34:24.298Z,100354.59
2022-12-28T06:36:53.983Z,100352.03
2022-12-28T06:39:23.572Z,100351.25
2022-12-28T06:41:52.991Z,100359.88
2022-12-28T06:44:25.042Z,100359.88
2022-12-28T06:46:54.427Z,100358.50
2022-12-28T06:49:23.836Z,100348.53
2022-12-28T06:51:53.514Z,100353.41
2022-12-28T06:54:22.939Z,100355.16
2022-12-28T06:56:52.319Z,100344.38
2022-12-28T06:59:21.795Z,100352.94
2022-12-28T07:01:54.181Z,100350.47
2022-12-28T07:04:23.699Z,100348.91
2022-12-28T07:06:53.093Z,100337.50
2022-12-28T07:09:22.847Z,100338.31
2022-12-28T07:11:52.824Z,100333.59
2022-12-28T07:14:22.290Z,100337.91
2022-12-28T07:16:54.275Z,100348.09
2022-12-28T07:19:23.648Z,100341.63
2022-12-28T07:21:53.289Z,100342.59
2022-12-28T07:24:22.675Z,100358.69
2022-12-28T07:26:52.300Z,100367.31
2022-12-28T07:29:21.815Z,100381.66
2022-12-28T07:31:53.827Z,100366.47
2022-12-28T07:34:23.499Z,100366.53
2022-12-28T07:36:52.998Z,100359.94
2022-12-28T07:39:22.425Z,100355.75
2022-12-28T07:41:51.825Z,100348.28
2022-12-28T07:44:21.217Z,100356.81
2022-12-28T07:46:50.592Z,100352.78
2022-12-28T07:49:22.628Z,100342.78
2022-12-28T07:51:52.045Z,100351.50
2022-12-28T07:54:21.450Z,100342.53
2022-12-28T07:56:50.862Z,100347.84
2022-12-28T07:59:20.378Z,100336.94
2022-12-28T08:01:52.836Z,100329.44
2022-12-28T08:04:24.933Z,100322.06
2022-12-28T08:06:54.370Z,100320.66
2022-12-28T08:09:24.077Z,100321.03
2022-12-28T08:11:53.543Z,100327.16
2022-12-28T08:14:22.926Z,100326.53
2022-12-28T08:16:52.342Z,100327.53
2022-12-28T08:19:21.827Z,100329.28
2022-12-28T08:21:54.584Z,100316.06
2022-12-28T08:24:24.299Z,100324.59
2022-12-28T08:26:53.701Z,100319.69
2022-12-28T08:29:25.647Z,100313.97
2022-12-28T08:31:55.048Z,100324.28
2022-12-28T08:34:27.216Z,100326.22
2022-12-28T08:36:59.650Z,100324.94
2022-12-28T08:39:29.353Z,100316.72
2022-12-28T08:41:58.809Z,100314.16
2022-12-28T08:44:28.265Z,100315.13
2022-12-28T08:46:58.474Z,100314.31
2022-12-28T08:49:27.946Z,100315.31
2022-12-28T08:52:00.442Z,100314.63
2022-12-28T08:54:29.842Z,100314.88
2022-12-28T08:56:59.269Z,100297.34
2022-12-28T08:59:28.750Z,100301.66
2022-12-28T09:01:58.233Z,100291.69
2022-12-28T09:04:27.689Z,100293.53
2022-12-28T09:06:59.781Z,100291.16
2022-12-28T09:09:29.230Z,100284.66
2022-12-28T09:11:58.616Z,100300.16
2022-12-28T09:14:28.072Z,100286.75
2022-12-28T09:16:57.475Z,100293.97
2022-12-28T09:19:26.913Z,100299.22
2022-12-28T09:21:56.443Z,100284.06
2022-12-28T09:24:28.521Z,100289.44
2022-12-28T09:26:57.968Z,100315.13
2022-12-28T09:29:27.448Z,100297.53
2022-12-28T09:31:57.918Z,100301.16
2022-12-28T09:34:37.306Z,100295.31
2022-12-28T09:37:07.702Z,100292.78
2022-12-28T09:39:39.966Z,100303.25
2022-12-28T09:42:13.807Z,100297.56
2022-12-28T09:44:48.814Z,100296.97
2022-12-28T09:47:23.013Z,100292.88
2022-12-28T09:50:25.085Z,100308.47
2022-12-28T09:53:10.107Z,100301.94
2022-12-28T09:55:43.787Z,100306.53
2022-12-28T09:58:17.504Z,100315.88
2022-12-28T10:00:49.072Z,100316.91
2022-12-28T10:03:19.826Z,100319.56
2022-12-28T10:05:49.603Z,100331.47
2022-12-28T10:08:23.972Z,100326.63
2022-12-28T10:10:56.789Z,100339.50
2022-12-28T10:16:20.572Z,100344.94
2022-12-28T10:18:53.585Z,100338.06
2022-12-28T10:21:31.940Z,100327.09
2022-12-28T10:26:54.827Z,100325.72
2022-12-28T10:29:26.336Z,100344.44
2022-12-28T10:32:01.422Z,100340.19
2022-12-28T10:34:34.163Z,100336.09
2022-12-28T10:37:14.446Z,100342.91
2022-12-28T10:39:51.429Z,100334.53
2022-12-28T10:42:27.806Z,100332.91
2022-12-28T10:45:02.688Z,100330.59
2022-12-28T10:47:35.600Z,100317.97
2022-12-28T10:53:00.087Z,100341.34
2022-12-28T10:55:31.049Z,100339.91
2022-12-28T10:58:30.098Z,100335.47
2022-12-28T11:01:02.866Z,100326.94
2022-12-28T11:03:37.624Z,100328.81
2022-12-28T11:06:12.202Z,100335.06
2022-12-28T11:08:42.832Z,100352.28
2022-12-28T11:11:20.955Z,100345.56
2022-12-28T11:13:55.243Z,100349.09
2022-12-28T11:16:24.782Z,100367.84
2022-12-28T11:18:54.369Z,100368.72
2022-12-28T11:21:25.431Z,100377.22
2022-12-28T11:23:55.455Z,100379.78
2022-12-28T11:26:25.092Z,100380.59
2022-12-28T11:28:57.491Z,100375.53
2022-12-28T11:31:30.905Z,100390.13
2022-12-28T11:34:03.472Z,100392.69
2022-12-28T11:36:34.529Z,100397.00
2022-12-28T11:39:34.348Z,100391.88
2022-12-28T11:42:38.290Z,100390.91
2022-12-28T11:44:57.024Z,100404.50
2022-12-28T11:47:35.622Z,100410.31
2022-12-28T11:50:38.237Z,100412.69
2022-12-28T11:53:22.899Z,100406.75
2022-12-28T11:56:08.466Z,100391.22
2022-12-28T11:58:47.821Z,100396.34
2022-12-28T12:01:46.931Z,100383.63
2022-12-28T12:04:22.613Z,100375.75
2022-12-28T12:07:10.805Z,100374.09
2022-12-28T12:09:45.184Z,100368.16
2022-12-28T12:12:39.462Z,100358.72
2022-12-28T12:15:21.367Z,100354.53
2022-12-28T12:17:56.945Z,100341.72
2022-12-28T12:20:31.812Z,100347.16
2022-12-28T12:23:05.164Z,100335.88
2022-12-28T12:25:39.168Z,100317.53
2022-12-28T12:28:13.514Z,100307.78
2022-12-28T12:30:45.253Z,100302.22
2022-12-28T12:33:21.433Z,100308.09
2022-12-28T12:35:59.369Z,100307.19
2022-12-28T12:38:40.777Z,100315.91
2022-12-28T12:41:20.932Z,100309.97
2022-12-28T12:44:02.035Z,100308.31
2022-12-28T12:47:10.129Z,100317.66
2022-12-28T12:50:05.475Z,100311.75
2022-12-28T12:52:42.487Z,100308.31
2022-12-28T12:55:23.830Z,100330.56
2022-12-28T12:58:00.723Z,100315.28
2022-12-28T13:00:35.087Z,100316.91
2022-12-28T13:03:18.187Z,100328.19
2022-12-28T13:05:55.025Z,100322.25
2022-12-28T13:08:28.337Z,100320.53
2022-12-28T13:10:58.190Z,100307.91
2022-12-28T13:13:34.438Z,100310.47
2022-12-28T13:16:05.997Z,100301.06
2022-12-28T13:18:50.882Z,100305.25
2022-12-28T13:21:24.156Z,100309.66
2022-12-28T13:23:54.429Z,100305.47
2022-12-28T13:26:29.593Z,100304.66
2022-12-28T13:29:02.144Z,100302.91
2022-12-28T13:31:35.856Z,100302.03
2022-12-28T13:34:07.218Z,100298.59
2022-12-28T13:36:49.624Z,100307.09
2022-12-28T13:39:21.581Z,100305.47
2022-12-28T13:41:52.808Z,100308.84
2022-12-28T13:44:35.963Z,100306.34
2022-12-28T13:47:08.756Z,100306.44
2022-12-28T13:49:41.678Z,100297.94
2022-12-28T13:52:17.629Z,100292.00
2022-12-28T13:54:49.279Z,100292.91
2022-12-28T13:57:45.915Z,100293.75
2022-12-28T14:00:11.435Z,100295.47
2022-12-28T14:02:42.766Z,100281.88
2022-12-28T14:05:18.875Z,100285.44
2022-12-28T14:07:51.169Z,100293.03
2022-12-28T14:10:21.291Z,100280.13
2022-12-28T14:12:51.500Z,100277.66
2022-12-28T14:15:21.593Z,100278.47
2022-12-28T14:17:52.752Z,100281.84
2022-12-28T14:20:23.333Z,100281.03
2022-12-28T14:22:55.582Z,100273.34
2022-12-28T14:25:25.565Z,100279.41
2022-12-28T14:27:59.580Z,100264.81
2022-12-28T14:30:31.488Z,100268.13
2022-12-28T14:33:07.099Z,100251.09
2022-12-28T14:35:47.753Z,100257.06
2022-12-28T14:38:23.904Z,100252.72
2022-12-28T14:40:57.713Z,100261.22
2022-12-28T14:43:29.338Z,100247.47
2022-12-28T14:46:06.629Z,100244.19
2022-12-28T14:48:40.800Z,100247.59
2022-12-28T14:51:30.016Z,100249.22
2022-12-28T14:54:24.137Z,100244.97
2022-12-28T14:56:56.806Z,100245.69
2022-12-28T14:59:29.480Z,100246.66
2022-12-28T15:01:59.216Z,100239.59
2022-12-28T15:04:39.091Z,100232.00
2022-12-28T15:07:10.266Z,100243.19
2022-12-28T15:09:42.460Z,100235.44
2022-12-28T15:12:15.025Z,100240.41
2022-12-28T15:14:44.562Z,100227.50
2022-12-28T15:17:14.094Z,100216.53
2022-12-28T15:19:45.197Z,100224.22
2022-12-28T15:22:14.769Z,100220.72
2022-12-28T15:24:48.856Z,100215.50
2022-12-28T15:27:18.410Z,100211.09
2022-12-28T15:30:04.882Z,100197.44
2022-12-28T15:32:34.810Z,100190.91
2022-12-28T15:35:04.298Z,100183.78
2022-12-28T15:37:33.841Z,100178.66
2022-12-28T15:40:06.738Z,100177.69
2022-12-28T15:42:40.385Z,100176.97
2022-12-28T15:45:11.831Z,100163.34
2022-12-28T15:47:41.567Z,100167.53
2022-12-28T15:50:12.461Z,100158.22
2022-12-28T15:52:42.034Z,100157.34
2022-12-28T15:55:14.270Z,100152.13
2022-12-28T15:57:44.040Z,100149.75
2022-12-28T16:00:18.868Z,100139.47
2022-12-28T16:02:48.904Z,100140.34
2022-12-28T16:05:18.525Z,100136.09
2022-12-28T16:07:47.968Z,100131.09
2022-12-28T16:10:20.340Z,100129.34
2022-12-28T16:12:49.791Z,100124.09
2022-12-28T16:15:19.418Z,100129.22
2022-12-28T16:17:56.693Z,100115.69
2022-12-28T16:20:26.954Z,100109.56
2022-12-28T16:22:56.454Z,100113.88
2022-12-28T16:25:28.458Z,100115.59
2022-12-28T16:27:58.018Z,100123.38
2022-12-28T16:30:28.185Z,100131.06
2022-12-28T16:32:57.968Z,100136.22
2022-12-28T16:35:27.534Z,100155.00
2022-12-28T16:37:57.311Z,100164.59
2022-12-28T16:40:29.408Z,100138.00
2022-12-28T16:42:58.910Z,100132.09
2022-12-28T16:45:28.459Z,100141.38
2022-12-28T16:47:57.949Z,100148.25
2022-12-28T16:50:27.542Z,100146.78
2022-12-28T16:53:00.873Z,100168.91
2022-12-28T16:55:35.286Z,100179.91
2022-12-28T16:58:04.764Z,100194.28
2022-12-28T17:00:34.560Z,100194.19
2022-12-28T17:03:05.347Z,100207.91
2022-12-28T17:05:36.051Z,100207.72
2022-12-28T17:08:06.546Z,100212.06
2022-12-28T17:10:38.648Z,100205.25
2022-12-28T17:13:08.123Z,100217.03
2022-12-28T17:15:37.737Z,100219.47
2022-12-28T17:18:07.463Z,100216.09
2022-12-28T17:20:39.159Z,100214.34
2022-12-28T17:23:09.369Z,100204.94
2022-12-28T17:25:43.733Z,100195.44
2022-12-28T17:28:13.141Z,100188.53
2022-12-28T17:30:43.023Z,100164.66
2022-12-28T17:33:14.252Z,100164.53
2022-12-28T17:35:44.253Z,100151.03
2022-12-28T17:38:13.778Z,100148.34
2022-12-28T17:40:45.852Z,100145.91
2022-12-28T17:43:15.330Z,100162.78
2022-12-28T17:45:44.898Z,100163.72
2022-12-28T17:48:14.409Z,100144.16
2022-12-28T17:50:45.860Z,100132.16
2022-12-28T17:53:15.375Z,100132.16
2022-12-28T17:55:47.477Z,100164.66
2022-12-28T17:58:17.089Z,100183.41
2022-12-28T18:00:46.591Z,100190.47
2022-12-28T18:03:16.183Z,100195.44
2022-12-28T18:05:45.696Z,100197.34
2022-12-28T18:08:15.147Z,100185.34
2022-12-28T18:10:47.561Z,100177.69
2022-12-28T18:13:17.787Z,100176.16
2022-12-28T18:15:49.086Z,100165.78
2022-12-28T18:18:19.987Z,100183.00
2022-12-28T18:20:58.947Z,100188.97
2022-12-28T18:23:28.453Z,100188.13
2022-12-28T18:26:06.024Z,100196.63
2022-12-28T18:28:36.455Z,100205.25
2022-12-28T18:31:07.076Z,100213.66
2022-12-28T18:33:37.090Z,100217.94
2022-12-28T18:36:16.809Z,100215.13
2022-12-28T18:38:47.617Z,100206.78
2022-12-28T18:41:21.483Z,100218.78
2022-12-28T18:43:51.509Z,100217.84
2022-12-28T18:46:21.222Z,100223.41
2022-12-28T18:48:50.686Z,100228.41
2022-12-28T18:51:20.908Z,100228.09
2022-12-28T18:53:50.906Z,100214.47
2022-12-28T18:56:24.001Z,100212.22
2022-12-28T18:58:54.745Z,100214.91
2022-12-28T19:02:04.804Z,100209.56
2022-12-28T19:04:15.797Z,100214.78
2022-12-28T19:06:46.273Z,100213.03
2022-12-28T19:09:16.061Z,100199.53
2022-12-28T19:11:48.115Z,100212.13
2022-12-28T19:14:19.752Z,100199.53
2022-12-28T19:16:49.391Z,100190.97
2022-12-28T19:19:20.502Z,100197.63
2022-12-28T19:21:56.594Z,100196.19
2022-12-28T19:24:28.231Z,100199.53
2022-12-28T19:27:00.244Z,100189.94
2022-12-28T19:29:31.354Z,100180.63
2022-12-28T19:32:01.014Z,100176.44
2022-12-28T19:34:30.412Z,100168.53
2022-12-28T19:36:59.907Z,100164.38
2022-12-28T19:39:29.346Z,100168.34
2022-12-28T19:42:01.435Z,100163.94
2022-12-28T19:44:30.948Z,100159.53
2022-12-28T19:47:00.502Z,100152.94
2022-12-28T19:49:30.290Z,100152.00
2022-12-28T19:52:02.220Z,100151.75
2022-12-28T19:54:31.827Z,100147.22
2022-12-28T19:57:03.946Z,100136.84
2022-12-28T19:59:33.504Z,100129.81
2022-12-28T20:02:03.620Z,100128.06
2022-12-28T20:04:33.214Z,100124.59
2022-12-28T20:07:02.874Z,100122.34
2022-12-28T20:09:32.345Z,100112.09
2022-12-28T20:12:04.441Z,100112.22
2022-12-28T20:14:34.180Z,100107.75
2022-12-28T20:17:03.674Z,100111.06
2022-12-28T20:19:33.145Z,100103.94
2022-12-28T20:22:02.603Z,100082.50
2022-12-28T20:24:32.175Z,100085.88
2022-12-28T20:27:04.297Z,100071.13
2022-12-28T20:29:33.851Z,100073.56
2022-12-28T20:32:03.418Z,100067.41
2022-12-28T20:34:34.763Z,100041.84
2022-12-28T20:37:04.344Z,100045.09
2022-12-28T20:39:33.953Z,100030.50
2022-12-28T20:42:18.578Z,100022.69
2022-12-28T20:44:48.188Z,100006.38
2022-12-28T20:47:17.662Z,100011.31
2022-12-28T20:49:47.201Z,99983.94
2022-12-28T20:52:16.650Z,99971.94
2022-12-28T20:54:46.102Z,99965.88
2022-12-28T20:57:18.232Z,99952.91
2022-12-28T20:59:47.758Z,99936.75
2022-12-28T21:02:17.262Z,99923.94
2022-12-28T21:04:46.776Z,99898.34
2022-12-28T21:07:16.267Z,99893.94
2022-12-28T21:09:50.669Z,99880.13
2022-12-28T21:12:22.872Z,99857.25
2022-12-28T21:14:52.506Z,99849.28
2022-12-28T21:17:21.987Z,99836.53
2022-12-28T21:19:51.668Z,99818.69
2022-12-28T21:22:21.270Z,99807.63
2022-12-28T21:24:50.834Z,99799.91
2022-12-28T21:27:22.985Z,99790.41
2022-12-28T21:29:52.478Z,99787.84
2022-12-28T21:32:22.034Z,99776.78
2022-12-28T21:34:51.507Z,99770.66
2022-12-28T21:37:33.508Z,99759.69
2022-12-28T21:40:03.030Z,99754.03
2022-12-28T21:42:35.495Z,99753.59
2022-12-28T21:45:05.188Z,99741.50
2022-12-28T21:47:34.887Z,99738.72
2022-12-28T21:50:04.450Z,99727.41
2022-12-28T21:52:34.459Z,99723.09
2022-12-28T21:55:24.284Z,99724.16
2022-12-28T21:57:59.499Z,99712.91
2022-12-28T22:00:41.800Z,99718.09
2022-12-28T22:03:23.913Z,99715.47
2022-12-28T22:06:06.197Z,99698.34
2022-12-28T22:08:48.553Z,99698.50
2022-12-28T22:11:30.752Z,99692.41
2022-12-28T22:14:02.968Z,99691.56
2022-12-28T22:16:34.326Z,99684.88
2022-12-28T22:19:04.573Z,99683.25
2022-12-28T22:21:36.048Z,99690.00
2022-12-28T22:24:05.602Z,99678.94
2022-12-28T22:26:35.026Z,99680.63
2022-12-28T22:29:07.371Z,99665.34
2022-12-28T22:31:36.904Z,99675.38
2022-12-28T22:34:07.446Z,99669.38
2022-12-28T22:36:37.491Z,99663.66
2022-12-28T22:39:07.060Z,99664.59
2022-12-28T22:41:36.472Z,99656.09
2022-12-28T22:44:08.535Z,99652.41
2022-12-28T22:46:38.006Z,99659.13
2022-12-28T22:49:07.436Z,99646.56
2022-12-28T22:51:36.951Z,99640.81
2022-12-28T22:54:06.685Z,99651.06
2022-12-28T22:56:36.199Z,99630.63
2022-12-28T22:59:13.579Z,99627.41
2022-12-28T23:01:45.055Z,99616.41
2022-12-28T23:04:14.647Z,99614.84
2022-12-28T23:06:44.392Z,99611.56
2022-12-28T23:09:13.917Z,99607.50
2022-12-28T23:11:43.395Z,99627.91
2022-12-28T23:14:29.780Z,99618.63
2022-12-28T23:16:59.484Z,99627.13
2022-12-28T23:19:42.912Z,99628.91
2022-12-28T23:22:28.591Z,99619.50
2022-12-28T23:25:10.447Z,99623.00
2022-12-28T23:27:43.625Z,99641.88
2022-12-28T23:30:18.645Z,99636.06
2022-12-28T23:32:48.338Z,99636.13
2022-12-28T23:35:19.331Z,99633.63
2022-12-28T23:37:48.781Z,99639.63
2022-12-28T23:40:20.438Z,99637.25
2022-12-28T23:42:49.879Z,99649.13
2022-12-28T23:45:21.836Z,99628.00
2022-12-28T23:47:51.627Z,99643.44
2022-12-28T23:50:22.006Z,99629.75
2022-12-28T23:52:51.561Z,99629.75
2022-12-28T23:55:20.951Z,99641.75
2022-12-28T23:57:50.368Z,99640.91
